DLH29P EDDF-LEPA
Flight info
| Callsign | DLH29P |
|---|---|
| Flight time | 1h 50m |
| Altitude | 37000 |
| Route | ANEKI2L/18 ANEKI Y163 HERBI Y164 MOPAN DCT LUTIX DCT BENOT DCT NEMOS DCT GEVEA DCT INCUS DCT BALSI DCT RETNO DCT TUPOX DCT MTG DCT DIVKO DCT VATIR DCT PIVUS N852 VERSO L129 LUNIK |
| Aircraft | A320/M-SDE3FGHIRWY/LB1 |
Departure
| Time | 2026-05-06 08:41 |
|---|---|
| Airport | Frankfurt Main Airport (EDDF) |
Arrival
| Time | 2026-05-06 10:31 |
|---|---|
| Airport | Palma de Mallorca Airport (LEPA) |
| Time | Latitude | Longitude | Altitude | Speed | Heading |
|---|---|---|---|---|---|
| 2026-05-06 08:02 | 50.04653 | 8.57059 | 356 ft | 0 kts | 91° |
| 2026-05-06 08:30 | 50.04653 | 8.57048 | 356 ft | 4 kts | 91° |
| 2026-05-06 08:30 | 50.04653 | 8.57019 | 356 ft | 4 kts | 91° |
| 2026-05-06 08:30 | 50.04654 | 8.56972 | 359 ft | 4 kts | 114° |
| 2026-05-06 08:31 | 50.04669 | 8.56950 | 359 ft | 4 kts | 184° |
| 2026-05-06 08:31 | 50.04680 | 8.56954 | 358 ft | 3 kts | 205° |
| 2026-05-06 08:31 | 50.04656 | 8.56936 | 363 ft | 4 kts | 204° |
| 2026-05-06 08:31 | 50.04647 | 8.56929 | 358 ft | 0 kts | 204° |
| 2026-05-06 08:34 | 50.04645 | 8.56928 | 358 ft | 3 kts | 204° |
| 2026-05-06 08:34 | 50.04568 | 8.56896 | 362 ft | 4 kts | 193° |
| 2026-05-06 08:34 | 50.04532 | 8.56883 | 359 ft | 9 kts | 193° |
| 2026-05-06 08:35 | 50.04468 | 8.56841 | 365 ft | 10 kts | 241° |
| 2026-05-06 08:35 | 50.04436 | 8.56723 | 360 ft | 14 kts | 244° |
| 2026-05-06 08:35 | 50.04389 | 8.56570 | 359 ft | 17 kts | 247° |
| 2026-05-06 08:35 | 50.04341 | 8.56380 | 363 ft | 20 kts | 249° |
| 2026-05-06 08:36 | 50.04292 | 8.56164 | 359 ft | 21 kts | 250° |
| 2026-05-06 08:36 | 50.04241 | 8.55949 | 355 ft | 22 kts | 249° |
| 2026-05-06 08:36 | 50.04185 | 8.55718 | 358 ft | 24 kts | 249° |
| 2026-05-06 08:36 | 50.04126 | 8.55473 | 353 ft | 24 kts | 250° |
| 2026-05-06 08:37 | 50.04070 | 8.55228 | 355 ft | 24 kts | 250° |
| 2026-05-06 08:37 | 50.04011 | 8.54984 | 355 ft | 24 kts | 249° |
| 2026-05-06 08:37 | 50.03949 | 8.54730 | 357 ft | 25 kts | 249° |
| 2026-05-06 08:37 | 50.03899 | 8.54519 | 351 ft | 21 kts | 249° |
| 2026-05-06 08:38 | 50.03830 | 8.54308 | 351 ft | 22 kts | 237° |
| 2026-05-06 08:38 | 50.03764 | 8.54082 | 354 ft | 23 kts | 249° |
| 2026-05-06 08:38 | 50.03707 | 8.53839 | 348 ft | 24 kts | 250° |
| 2026-05-06 08:38 | 50.03646 | 8.53586 | 346 ft | 26 kts | 249° |
| 2026-05-06 08:39 | 50.03581 | 8.53324 | 335 ft | 26 kts | 249° |
| 2026-05-06 08:39 | 50.03516 | 8.53052 | 335 ft | 27 kts | 249° |
| 2026-05-06 08:39 | 50.03455 | 8.52807 | 333 ft | 19 kts | 248° |
| 2026-05-06 08:39 | 50.03414 | 8.52654 | 333 ft | 14 kts | 241° |
| 2026-05-06 08:40 | 50.03330 | 8.52590 | 335 ft | 15 kts | 179° |
| 2026-05-06 08:40 | 50.03172 | 8.52594 | 335 ft | 42 kts | 180° |
| 2026-05-06 08:40 | 50.02632 | 8.52601 | 334 ft | 110 kts | 179° |
| 2026-05-06 08:40 | 50.01683 | 8.52611 | 367 ft | 158 kts | 182° |
| 2026-05-06 08:41 | 50.00597 | 8.52624 | 1077 ft | 154 kts | 180° |
| 2026-05-06 08:41 | 49.99511 | 8.52690 | 1738 ft | 162 kts | 180° |
| 2026-05-06 08:41 | 49.98312 | 8.52772 | 2093 ft | 183 kts | 181° |
| 2026-05-06 08:41 | 49.96969 | 8.52849 | 2467 ft | 203 kts | 181° |
| 2026-05-06 08:42 | 49.95483 | 8.52957 | 2977 ft | 220 kts | 180° |
| 2026-05-06 08:42 | 49.93947 | 8.53068 | 3832 ft | 223 kts | 180° |
| 2026-05-06 08:42 | 49.92378 | 8.53178 | 4667 ft | 227 kts | 181° |
| 2026-05-06 08:42 | 49.90788 | 8.53293 | 5534 ft | 230 kts | 181° |
| 2026-05-06 08:43 | 49.89177 | 8.53412 | 6391 ft | 233 kts | 180° |
| 2026-05-06 08:43 | 49.87551 | 8.53533 | 7236 ft | 235 kts | 181° |
| 2026-05-06 08:43 | 49.85908 | 8.53642 | 8084 ft | 238 kts | 181° |
| 2026-05-06 08:43 | 49.84246 | 8.53749 | 8951 ft | 240 kts | 181° |
| 2026-05-06 08:44 | 49.82569 | 8.53858 | 9821 ft | 243 kts | 180° |
| 2026-05-06 08:44 | 49.80870 | 8.53970 | 10618 ft | 245 kts | 180° |
| 2026-05-06 08:44 | 49.79158 | 8.54083 | 11410 ft | 247 kts | 180° |
| 2026-05-06 08:44 | 49.77431 | 8.54070 | 12108 ft | 254 kts | 187° |
| 2026-05-06 08:45 | 49.75594 | 8.53829 | 12408 ft | 277 kts | 187° |
| 2026-05-06 08:45 | 49.73592 | 8.53555 | 12661 ft | 300 kts | 187° |
| 2026-05-06 08:45 | 49.71433 | 8.53258 | 12877 ft | 323 kts | 187° |
| 2026-05-06 08:45 | 49.69116 | 8.52940 | 13031 ft | 346 kts | 187° |
| 2026-05-06 08:46 | 49.66643 | 8.52608 | 13170 ft | 367 kts | 186° |
| 2026-05-06 08:46 | 49.64079 | 8.52263 | 13478 ft | 380 kts | 186° |
| 2026-05-06 08:46 | 49.61428 | 8.51911 | 14002 ft | 385 kts | 186° |
| 2026-05-06 08:46 | 49.58748 | 8.51562 | 14571 ft | 388 kts | 186° |
| 2026-05-06 08:47 | 49.56046 | 8.51212 | 15127 ft | 392 kts | 186° |
| 2026-05-06 08:47 | 49.53318 | 8.50857 | 15673 ft | 395 kts | 186° |
| 2026-05-06 08:47 | 49.50562 | 8.50496 | 16204 ft | 399 kts | 186° |
| 2026-05-06 08:47 | 49.47785 | 8.50133 | 16732 ft | 402 kts | 186° |
| 2026-05-06 08:48 | 49.44984 | 8.49766 | 17251 ft | 406 kts | 186° |
| 2026-05-06 08:48 | 49.42158 | 8.49396 | 17767 ft | 409 kts | 186° |
| 2026-05-06 08:48 | 49.39309 | 8.49025 | 18248 ft | 412 kts | 186° |
| 2026-05-06 08:48 | 49.36439 | 8.48653 | 18702 ft | 415 kts | 186° |
| 2026-05-06 08:49 | 49.33554 | 8.48274 | 19159 ft | 417 kts | 186° |
| 2026-05-06 08:49 | 49.30653 | 8.47890 | 19610 ft | 420 kts | 186° |
| 2026-05-06 08:49 | 49.27740 | 8.47508 | 20053 ft | 422 kts | 186° |
| 2026-05-06 08:49 | 49.24807 | 8.47132 | 20482 ft | 424 kts | 186° |
| 2026-05-06 08:50 | 49.21858 | 8.46756 | 20901 ft | 426 kts | 186° |
| 2026-05-06 08:50 | 49.18902 | 8.46374 | 21342 ft | 427 kts | 186° |
| 2026-05-06 08:50 | 49.15940 | 8.45991 | 21801 ft | 428 kts | 186° |
| 2026-05-06 08:50 | 49.12966 | 8.45606 | 22222 ft | 429 kts | 186° |
| 2026-05-06 08:51 | 49.09988 | 8.45221 | 22626 ft | 431 kts | 186° |
| 2026-05-06 08:51 | 49.06985 | 8.44811 | 23010 ft | 433 kts | 189° |
| 2026-05-06 08:51 | 49.04034 | 8.43942 | 23365 ft | 433 kts | 194° |
| 2026-05-06 08:51 | 49.01086 | 8.42895 | 23686 ft | 435 kts | 194° |
| 2026-05-06 08:52 | 48.98172 | 8.41873 | 24013 ft | 436 kts | 194° |
| 2026-05-06 08:52 | 48.95178 | 8.40833 | 24376 ft | 436 kts | 194° |
| 2026-05-06 08:52 | 48.92254 | 8.39822 | 24704 ft | 437 kts | 193° |
| 2026-05-06 08:52 | 48.89291 | 8.38804 | 25013 ft | 438 kts | 193° |
| 2026-05-06 08:53 | 48.86320 | 8.37783 | 25343 ft | 438 kts | 193° |
| 2026-05-06 08:53 | 48.83360 | 8.36761 | 25799 ft | 435 kts | 193° |
| 2026-05-06 08:53 | 48.80413 | 8.35739 | 26267 ft | 433 kts | 193° |
| 2026-05-06 08:53 | 48.77486 | 8.34720 | 26736 ft | 430 kts | 193° |
| 2026-05-06 08:54 | 48.74578 | 8.33679 | 27188 ft | 429 kts | 193° |
| 2026-05-06 08:54 | 48.71682 | 8.32616 | 27632 ft | 427 kts | 194° |
| 2026-05-06 08:54 | 48.68806 | 8.31550 | 28097 ft | 425 kts | 194° |
| 2026-05-06 08:54 | 48.65933 | 8.30487 | 28528 ft | 424 kts | 194° |
| 2026-05-06 08:55 | 48.63069 | 8.29435 | 28978 ft | 422 kts | 194° |
| 2026-05-06 08:55 | 48.60223 | 8.28400 | 29450 ft | 421 kts | 193° |
| 2026-05-06 08:55 | 48.57376 | 8.27370 | 29919 ft | 419 kts | 193° |
| 2026-05-06 08:55 | 48.54558 | 8.26347 | 30287 ft | 417 kts | 194° |
| 2026-05-06 08:56 | 48.51726 | 8.25321 | 30625 ft | 417 kts | 194° |
| 2026-05-06 08:56 | 48.48910 | 8.24302 | 30955 ft | 416 kts | 194° |
| 2026-05-06 08:56 | 48.46093 | 8.23279 | 31298 ft | 416 kts | 194° |
| 2026-05-06 08:56 | 48.43280 | 8.22248 | 31642 ft | 416 kts | 194° |
| 2026-05-06 08:57 | 48.40470 | 8.21215 | 31982 ft | 415 kts | 194° |
| 2026-05-06 08:57 | 48.37662 | 8.20188 | 32318 ft | 415 kts | 194° |
| 2026-05-06 08:57 | 48.34858 | 8.19167 | 32647 ft | 415 kts | 195° |
| 2026-05-06 08:57 | 48.32060 | 8.18152 | 33067 ft | 412 kts | 195° |
| 2026-05-06 08:58 | 48.29281 | 8.17145 | 33488 ft | 410 kts | 195° |
| 2026-05-06 08:58 | 48.26514 | 8.16140 | 33869 ft | 409 kts | 196° |
| 2026-05-06 08:58 | 48.23820 | 8.14806 | 34159 ft | 407 kts | 204° |
| 2026-05-06 08:58 | 48.21304 | 8.12984 | 34419 ft | 407 kts | 207° |
| 2026-05-06 08:59 | 48.18768 | 8.11085 | 34682 ft | 408 kts | 207° |
| 2026-05-06 08:59 | 48.16224 | 8.09197 | 34928 ft | 408 kts | 207° |
| 2026-05-06 08:59 | 48.13640 | 8.07294 | 35174 ft | 409 kts | 206° |
| 2026-05-06 08:59 | 48.11094 | 8.05423 | 35463 ft | 408 kts | 206° |
| 2026-05-06 09:00 | 48.08551 | 8.03554 | 35730 ft | 407 kts | 206° |
| 2026-05-06 09:00 | 48.06041 | 8.01711 | 35953 ft | 407 kts | 206° |
| 2026-05-06 09:00 | 48.03500 | 7.99844 | 36188 ft | 407 kts | 206° |
| 2026-05-06 09:00 | 48.00958 | 7.97977 | 36436 ft | 408 kts | 207° |
| 2026-05-06 09:01 | 47.98410 | 7.96107 | 36662 ft | 408 kts | 206° |
| 2026-05-06 09:01 | 47.95855 | 7.94233 | 36802 ft | 410 kts | 207° |
| 2026-05-06 09:01 | 47.93257 | 7.92325 | 36836 ft | 413 kts | 206° |
| 2026-05-06 09:02 | 47.88122 | 7.88565 | 36834 ft | 414 kts | 206° |
| 2026-05-06 09:02 | 47.82944 | 7.84791 | 36836 ft | 415 kts | 206° |
| 2026-05-06 09:03 | 47.77758 | 7.81020 | 36839 ft | 414 kts | 206° |
| 2026-05-06 09:03 | 47.72582 | 7.77260 | 36833 ft | 414 kts | 206° |
| 2026-05-06 09:04 | 47.67395 | 7.73503 | 36830 ft | 414 kts | 206° |
| 2026-05-06 09:04 | 47.62216 | 7.69760 | 36842 ft | 415 kts | 206° |
| 2026-05-06 09:05 | 47.57024 | 7.66015 | 36839 ft | 415 kts | 206° |
| 2026-05-06 09:05 | 47.51829 | 7.62264 | 36833 ft | 415 kts | 206° |
| 2026-05-06 09:06 | 47.46633 | 7.58533 | 36842 ft | 415 kts | 206° |
| 2026-05-06 09:06 | 47.41434 | 7.54813 | 36837 ft | 415 kts | 206° |
| 2026-05-06 09:07 | 47.36240 | 7.51096 | 36847 ft | 415 kts | 206° |
| 2026-05-06 09:07 | 47.31072 | 7.47404 | 36853 ft | 415 kts | 206° |
| 2026-05-06 09:08 | 47.25868 | 7.43702 | 36834 ft | 416 kts | 206° |
| 2026-05-06 09:08 | 47.20650 | 7.40001 | 36834 ft | 417 kts | 206° |
| 2026-05-06 09:09 | 47.15818 | 7.35363 | 36829 ft | 418 kts | 222° |
| 2026-05-06 09:09 | 47.12051 | 7.28832 | 36828 ft | 420 kts | 230° |
| 2026-05-06 09:10 | 47.08413 | 7.22117 | 36833 ft | 421 kts | 229° |
| 2026-05-06 09:10 | 47.04755 | 7.15410 | 36839 ft | 421 kts | 229° |
| 2026-05-06 09:11 | 47.01091 | 7.08704 | 36853 ft | 421 kts | 229° |
| 2026-05-06 09:11 | 46.97421 | 7.02001 | 36864 ft | 422 kts | 229° |
| 2026-05-06 09:12 | 46.93770 | 6.95345 | 36884 ft | 422 kts | 229° |
| 2026-05-06 09:12 | 46.89819 | 6.89003 | 36863 ft | 422 kts | 218° |
| 2026-05-06 09:13 | 46.85263 | 6.83572 | 36857 ft | 423 kts | 218° |
| 2026-05-06 09:13 | 46.80688 | 6.78134 | 36858 ft | 425 kts | 218° |
| 2026-05-06 09:14 | 46.76104 | 6.72686 | 36847 ft | 425 kts | 219° |
| 2026-05-06 09:14 | 46.71516 | 6.67235 | 36866 ft | 425 kts | 219° |
| 2026-05-06 09:15 | 46.66926 | 6.61813 | 36875 ft | 425 kts | 219° |
| 2026-05-06 09:15 | 46.62333 | 6.56395 | 36879 ft | 425 kts | 219° |
| 2026-05-06 09:16 | 46.57745 | 6.50987 | 36877 ft | 425 kts | 219° |
| 2026-05-06 09:16 | 46.53152 | 6.45586 | 36916 ft | 424 kts | 218° |
| 2026-05-06 09:17 | 46.48553 | 6.40190 | 36900 ft | 425 kts | 218° |
| 2026-05-06 09:17 | 46.43945 | 6.34796 | 36893 ft | 426 kts | 218° |
| 2026-05-06 09:18 | 46.39331 | 6.29410 | 36893 ft | 426 kts | 218° |
| 2026-05-06 09:18 | 46.34712 | 6.24035 | 36904 ft | 426 kts | 218° |
| 2026-05-06 09:19 | 46.30123 | 6.18715 | 36910 ft | 425 kts | 218° |
| 2026-05-06 09:19 | 46.25200 | 6.14032 | 36908 ft | 425 kts | 204° |
| 2026-05-06 09:20 | 46.19482 | 6.11889 | 36901 ft | 427 kts | 191° |
| 2026-05-06 09:20 | 46.13603 | 6.10603 | 36903 ft | 427 kts | 191° |
| 2026-05-06 09:21 | 46.07718 | 6.09295 | 36927 ft | 427 kts | 191° |
| 2026-05-06 09:21 | 46.01842 | 6.07984 | 36934 ft | 427 kts | 191° |
| 2026-05-06 09:22 | 45.96962 | 6.06904 | 36922 ft | 427 kts | 191° |
| 2026-05-06 09:22 | 45.91094 | 6.05610 | 36923 ft | 426 kts | 191° |
| 2026-05-06 09:23 | 45.85233 | 6.04325 | 36934 ft | 426 kts | 191° |
| 2026-05-06 09:23 | 45.79378 | 6.03030 | 36924 ft | 426 kts | 191° |
| 2026-05-06 09:24 | 45.73521 | 6.01738 | 36919 ft | 425 kts | 191° |
| 2026-05-06 09:24 | 45.67676 | 6.00452 | 36926 ft | 425 kts | 191° |
| 2026-05-06 09:25 | 45.61829 | 5.99160 | 36929 ft | 425 kts | 191° |
| 2026-05-06 09:25 | 45.55977 | 5.97879 | 36926 ft | 425 kts | 191° |
| 2026-05-06 09:26 | 45.50170 | 5.96608 | 36937 ft | 426 kts | 191° |
| 2026-05-06 09:26 | 45.44341 | 5.95196 | 36927 ft | 423 kts | 194° |
| 2026-05-06 09:27 | 45.38594 | 5.93372 | 36915 ft | 423 kts | 196° |
| 2026-05-06 09:27 | 45.32870 | 5.91450 | 36926 ft | 422 kts | 195° |
| 2026-05-06 09:28 | 45.27140 | 5.89609 | 36927 ft | 422 kts | 195° |
| 2026-05-06 09:28 | 45.21394 | 5.87837 | 36917 ft | 422 kts | 195° |
| 2026-05-06 09:29 | 45.15657 | 5.86076 | 36921 ft | 422 kts | 195° |
| 2026-05-06 09:29 | 45.09923 | 5.84304 | 36923 ft | 422 kts | 195° |
| 2026-05-06 09:30 | 45.04229 | 5.82534 | 36901 ft | 422 kts | 195° |
| 2026-05-06 09:30 | 44.98496 | 5.80765 | 36909 ft | 422 kts | 195° |
| 2026-05-06 09:31 | 44.92766 | 5.79008 | 36912 ft | 421 kts | 195° |
| 2026-05-06 09:31 | 44.87038 | 5.77254 | 36918 ft | 421 kts | 195° |
| 2026-05-06 09:32 | 44.81310 | 5.75503 | 36907 ft | 421 kts | 195° |
| 2026-05-06 09:32 | 44.75589 | 5.73762 | 36911 ft | 420 kts | 195° |
| 2026-05-06 09:33 | 44.69873 | 5.72014 | 36912 ft | 420 kts | 195° |
| 2026-05-06 09:33 | 44.64197 | 5.70280 | 36934 ft | 421 kts | 195° |
| 2026-05-06 09:34 | 44.58477 | 5.68540 | 36919 ft | 421 kts | 195° |
| 2026-05-06 09:34 | 44.52747 | 5.66801 | 36912 ft | 421 kts | 195° |
| 2026-05-06 09:35 | 44.47008 | 5.65069 | 36903 ft | 422 kts | 195° |
| 2026-05-06 09:35 | 44.41272 | 5.63338 | 36911 ft | 423 kts | 195° |
| 2026-05-06 09:36 | 44.35653 | 5.61065 | 36916 ft | 419 kts | 204° |
| 2026-05-06 09:36 | 44.30223 | 5.58078 | 36913 ft | 420 kts | 204° |
| 2026-05-06 09:37 | 44.24780 | 5.55103 | 36905 ft | 420 kts | 204° |
| 2026-05-06 09:37 | 44.19335 | 5.52138 | 36916 ft | 419 kts | 204° |
| 2026-05-06 09:38 | 44.13905 | 5.49168 | 36933 ft | 420 kts | 204° |
| 2026-05-06 09:38 | 44.08465 | 5.46209 | 36922 ft | 419 kts | 204° |
| 2026-05-06 09:39 | 44.03075 | 5.43282 | 36944 ft | 418 kts | 204° |
| 2026-05-06 09:39 | 43.97656 | 5.40343 | 36949 ft | 418 kts | 204° |
| 2026-05-06 09:40 | 43.92247 | 5.37418 | 36954 ft | 417 kts | 204° |
| 2026-05-06 09:40 | 43.84139 | 5.33035 | 36974 ft | 416 kts | 204° |
| 2026-05-06 09:41 | 43.78742 | 5.30128 | 36969 ft | 417 kts | 204° |
| 2026-05-06 09:41 | 43.73337 | 5.27217 | 36963 ft | 417 kts | 204° |
| 2026-05-06 09:42 | 43.67931 | 5.24315 | 36940 ft | 417 kts | 204° |
| 2026-05-06 09:42 | 43.62524 | 5.21421 | 36948 ft | 417 kts | 204° |
| 2026-05-06 09:43 | 43.57103 | 5.18528 | 36951 ft | 417 kts | 204° |
| 2026-05-06 09:43 | 43.51689 | 5.15640 | 36955 ft | 417 kts | 204° |
| 2026-05-06 09:44 | 43.46276 | 5.12744 | 36948 ft | 417 kts | 204° |
| 2026-05-06 09:44 | 43.40866 | 5.09862 | 36953 ft | 417 kts | 204° |
| 2026-05-06 09:45 | 43.35830 | 5.06066 | 36953 ft | 412 kts | 216° |
| 2026-05-06 09:45 | 43.31106 | 5.01598 | 36931 ft | 412 kts | 217° |
| 2026-05-06 09:46 | 43.26388 | 4.97144 | 36950 ft | 412 kts | 216° |
| 2026-05-06 09:46 | 43.21663 | 4.92705 | 36979 ft | 412 kts | 217° |
| 2026-05-06 09:47 | 43.16928 | 4.88270 | 36968 ft | 412 kts | 217° |
| 2026-05-06 09:47 | 43.12224 | 4.83859 | 36942 ft | 413 kts | 217° |
| 2026-05-06 09:48 | 43.07484 | 4.79421 | 36964 ft | 412 kts | 217° |
| 2026-05-06 09:48 | 43.02569 | 4.75369 | 36970 ft | 414 kts | 212° |
| 2026-05-06 09:49 | 42.97536 | 4.71564 | 36977 ft | 413 kts | 212° |
| 2026-05-06 09:49 | 42.92512 | 4.67755 | 36974 ft | 413 kts | 212° |
| 2026-05-06 09:50 | 42.87495 | 4.63954 | 36978 ft | 412 kts | 212° |
| 2026-05-06 09:50 | 42.82487 | 4.60176 | 36990 ft | 411 kts | 212° |
| 2026-05-06 09:51 | 42.77478 | 4.56405 | 36992 ft | 411 kts | 212° |
| 2026-05-06 09:51 | 42.72471 | 4.52643 | 36974 ft | 412 kts | 212° |
| 2026-05-06 09:52 | 42.67456 | 4.48877 | 36967 ft | 412 kts | 212° |
| 2026-05-06 09:52 | 42.62431 | 4.45112 | 36964 ft | 412 kts | 212° |
| 2026-05-06 09:53 | 42.57407 | 4.41351 | 36971 ft | 413 kts | 212° |
| 2026-05-06 09:53 | 42.52409 | 4.37624 | 36949 ft | 413 kts | 212° |
| 2026-05-06 09:54 | 42.47373 | 4.33881 | 36975 ft | 412 kts | 212° |
| 2026-05-06 09:54 | 42.42347 | 4.30142 | 36985 ft | 412 kts | 212° |
| 2026-05-06 09:55 | 42.37325 | 4.26410 | 36987 ft | 412 kts | 212° |
| 2026-05-06 09:55 | 42.32304 | 4.22689 | 36979 ft | 411 kts | 212° |
| 2026-05-06 09:56 | 42.27291 | 4.18981 | 36993 ft | 410 kts | 212° |
| 2026-05-06 09:56 | 42.22284 | 4.15283 | 36993 ft | 410 kts | 212° |
| 2026-05-06 09:57 | 42.17266 | 4.11588 | 36992 ft | 411 kts | 212° |
| 2026-05-06 09:57 | 42.12248 | 4.07904 | 36956 ft | 411 kts | 212° |
| 2026-05-06 09:58 | 42.07228 | 4.04221 | 36971 ft | 410 kts | 212° |
| 2026-05-06 09:58 | 42.02221 | 4.00551 | 36981 ft | 410 kts | 212° |
| 2026-05-06 09:59 | 41.97207 | 3.96882 | 36988 ft | 410 kts | 211° |
| 2026-05-06 09:59 | 41.92064 | 3.93529 | 36991 ft | 415 kts | 202° |
| 2026-05-06 10:00 | 41.86410 | 3.91981 | 36977 ft | 419 kts | 194° |
| 2026-05-06 10:00 | 41.80671 | 3.90666 | 36989 ft | 418 kts | 195° |
| 2026-05-06 10:01 | 41.74931 | 3.89337 | 36993 ft | 418 kts | 195° |
| 2026-05-06 10:01 | 41.69203 | 3.88012 | 36977 ft | 418 kts | 195° |
| 2026-05-06 10:02 | 41.63471 | 3.86693 | 36988 ft | 418 kts | 195° |
| 2026-05-06 10:02 | 41.57739 | 3.85385 | 36993 ft | 418 kts | 195° |
| 2026-05-06 10:03 | 41.52014 | 3.84071 | 36993 ft | 418 kts | 195° |
| 2026-05-06 10:03 | 41.46285 | 3.82748 | 36980 ft | 417 kts | 195° |
| 2026-05-06 10:04 | 41.40567 | 3.81441 | 36989 ft | 417 kts | 195° |
| 2026-05-06 10:04 | 41.34832 | 3.80138 | 37010 ft | 417 kts | 195° |
| 2026-05-06 10:05 | 41.29110 | 3.78832 | 37003 ft | 418 kts | 195° |
| 2026-05-06 10:05 | 41.23376 | 3.77530 | 36985 ft | 418 kts | 195° |
| 2026-05-06 10:06 | 41.17644 | 3.76227 | 36993 ft | 418 kts | 195° |
| 2026-05-06 10:06 | 41.12143 | 3.74068 | 36997 ft | 410 kts | 206° |
| 2026-05-06 10:07 | 41.06826 | 3.71310 | 36961 ft | 411 kts | 206° |
| 2026-05-06 10:07 | 41.01499 | 3.68571 | 36976 ft | 411 kts | 205° |
| 2026-05-06 10:08 | 40.96205 | 3.65858 | 36984 ft | 410 kts | 205° |
| 2026-05-06 10:08 | 40.90884 | 3.63126 | 36988 ft | 410 kts | 205° |
| 2026-05-06 10:09 | 40.88220 | 3.61758 | 36783 ft | 411 kts | 205° |
| 2026-05-06 10:09 | 40.85563 | 3.60396 | 36518 ft | 410 kts | 206° |
| 2026-05-06 10:09 | 40.82904 | 3.59036 | 36236 ft | 409 kts | 206° |
| 2026-05-06 10:09 | 40.80244 | 3.57677 | 35976 ft | 412 kts | 206° |
| 2026-05-06 10:10 | 40.77566 | 3.56306 | 35736 ft | 414 kts | 206° |
| 2026-05-06 10:10 | 40.74873 | 3.54927 | 35487 ft | 415 kts | 206° |
| 2026-05-06 10:10 | 40.72178 | 3.53550 | 35240 ft | 415 kts | 206° |
| 2026-05-06 10:10 | 40.69485 | 3.52178 | 34910 ft | 416 kts | 206° |
| 2026-05-06 10:11 | 40.66777 | 3.50802 | 34179 ft | 416 kts | 206° |
| 2026-05-06 10:11 | 40.64091 | 3.49441 | 33585 ft | 410 kts | 206° |
| 2026-05-06 10:11 | 40.61435 | 3.48099 | 32777 ft | 409 kts | 206° |
| 2026-05-06 10:11 | 40.58774 | 3.46752 | 31868 ft | 410 kts | 206° |
| 2026-05-06 10:12 | 40.56114 | 3.45401 | 30908 ft | 412 kts | 206° |
| 2026-05-06 10:12 | 40.53432 | 3.44036 | 29632 ft | 412 kts | 206° |
| 2026-05-06 10:12 | 40.50736 | 3.42666 | 27944 ft | 419 kts | 205° |
| 2026-05-06 10:12 | 40.48028 | 3.41294 | 27085 ft | 416 kts | 205° |
| 2026-05-06 10:13 | 40.45251 | 3.40132 | 25958 ft | 423 kts | 198° |
| 2026-05-06 10:13 | 40.42335 | 3.39522 | 24823 ft | 424 kts | 189° |
| 2026-05-06 10:13 | 40.40390 | 3.39450 | 24125 ft | 423 kts | 184° |
| 2026-05-06 10:13 | 40.37453 | 3.39628 | 22999 ft | 420 kts | 182° |
| 2026-05-06 10:14 | 40.34549 | 3.39803 | 21811 ft | 415 kts | 182° |
| 2026-05-06 10:14 | 40.31675 | 3.39967 | 20848 ft | 413 kts | 182° |
| 2026-05-06 10:14 | 40.27895 | 3.40172 | 19703 ft | 405 kts | 182° |
| 2026-05-06 10:14 | 40.25146 | 3.40325 | 19183 ft | 383 kts | 182° |
| 2026-05-06 10:15 | 40.23394 | 3.40430 | 19065 ft | 362 kts | 182° |
| 2026-05-06 10:15 | 40.20973 | 3.40580 | 18942 ft | 335 kts | 183° |
| 2026-05-06 10:15 | 40.18715 | 3.40717 | 18631 ft | 317 kts | 183° |
| 2026-05-06 10:15 | 40.16553 | 3.40835 | 18399 ft | 313 kts | 183° |
| 2026-05-06 10:16 | 40.14351 | 3.40949 | 18147 ft | 312 kts | 183° |
| 2026-05-06 10:16 | 40.12186 | 3.41059 | 17879 ft | 310 kts | 183° |
| 2026-05-06 10:16 | 40.10060 | 3.41171 | 17615 ft | 309 kts | 183° |
| 2026-05-06 10:16 | 40.07883 | 3.41290 | 17342 ft | 308 kts | 183° |
| 2026-05-06 10:17 | 40.05744 | 3.41410 | 17083 ft | 307 kts | 183° |
| 2026-05-06 10:17 | 40.03636 | 3.41528 | 16826 ft | 306 kts | 183° |
| 2026-05-06 10:17 | 40.01511 | 3.41649 | 16570 ft | 305 kts | 183° |
| 2026-05-06 10:17 | 39.99393 | 3.41775 | 16311 ft | 304 kts | 182° |
| 2026-05-06 10:18 | 39.97279 | 3.41899 | 16049 ft | 303 kts | 182° |
| 2026-05-06 10:18 | 39.95176 | 3.42020 | 15791 ft | 302 kts | 182° |
| 2026-05-06 10:18 | 39.93082 | 3.42137 | 15544 ft | 301 kts | 182° |
| 2026-05-06 10:18 | 39.90989 | 3.42253 | 15144 ft | 302 kts | 182° |
| 2026-05-06 10:19 | 39.88878 | 3.42368 | 14719 ft | 303 kts | 182° |
| 2026-05-06 10:19 | 39.86778 | 3.42484 | 14297 ft | 304 kts | 182° |
| 2026-05-06 10:19 | 39.84678 | 3.42599 | 13988 ft | 298 kts | 182° |
| 2026-05-06 10:19 | 39.82619 | 3.42715 | 13310 ft | 295 kts | 182° |
| 2026-05-06 10:20 | 39.80572 | 3.42830 | 12647 ft | 292 kts | 182° |
| 2026-05-06 10:20 | 39.78555 | 3.42943 | 12138 ft | 289 kts | 182° |
| 2026-05-06 10:20 | 39.76538 | 3.43055 | 11646 ft | 292 kts | 182° |
| 2026-05-06 10:20 | 39.74503 | 3.43167 | 11234 ft | 292 kts | 181° |
| 2026-05-06 10:21 | 39.72503 | 3.43017 | 10784 ft | 288 kts | 199° |
| 2026-05-06 10:21 | 39.70780 | 3.41846 | 10376 ft | 275 kts | 222° |
| 2026-05-06 10:21 | 39.69623 | 3.39916 | 9765 ft | 270 kts | 246° |
| 2026-05-06 10:21 | 39.69170 | 3.37567 | 9243 ft | 270 kts | 262° |
| 2026-05-06 10:22 | 39.68932 | 3.35147 | 8786 ft | 270 kts | 262° |
| 2026-05-06 10:22 | 39.68684 | 3.32724 | 8322 ft | 272 kts | 262° |
| 2026-05-06 10:22 | 39.68432 | 3.30318 | 7953 ft | 270 kts | 262° |
| 2026-05-06 10:22 | 39.68185 | 3.27987 | 7762 ft | 252 kts | 262° |
| 2026-05-06 10:23 | 39.67946 | 3.25741 | 7291 ft | 246 kts | 262° |
| 2026-05-06 10:23 | 39.67715 | 3.23549 | 6740 ft | 244 kts | 262° |
| 2026-05-06 10:23 | 39.67484 | 3.21353 | 6211 ft | 249 kts | 262° |
| 2026-05-06 10:23 | 39.67252 | 3.19149 | 5748 ft | 251 kts | 262° |
| 2026-05-06 10:24 | 39.67019 | 3.16913 | 5436 ft | 247 kts | 262° |
| 2026-05-06 10:24 | 39.66795 | 3.14753 | 5289 ft | 236 kts | 262° |
| 2026-05-06 10:24 | 39.66578 | 3.12664 | 5033 ft | 231 kts | 262° |
| 2026-05-06 10:24 | 39.66364 | 3.10600 | 4534 ft | 231 kts | 261° |
| 2026-05-06 10:25 | 39.66147 | 3.08536 | 4298 ft | 231 kts | 261° |
| 2026-05-06 10:25 | 39.65934 | 3.06514 | 4165 ft | 218 kts | 262° |
| 2026-05-06 10:25 | 39.65735 | 3.04635 | 4068 ft | 205 kts | 262° |
| 2026-05-06 10:25 | 39.65542 | 3.02820 | 4006 ft | 203 kts | 262° |
| 2026-05-06 10:26 | 39.65347 | 3.01014 | 3893 ft | 202 kts | 262° |
| 2026-05-06 10:26 | 39.65152 | 2.99214 | 3795 ft | 201 kts | 262° |
| 2026-05-06 10:26 | 39.64958 | 2.97414 | 3702 ft | 201 kts | 262° |
| 2026-05-06 10:26 | 39.64663 | 2.95639 | 3492 ft | 202 kts | 247° |
| 2026-05-06 10:27 | 39.63968 | 2.94065 | 3195 ft | 201 kts | 238° |
| 2026-05-06 10:27 | 39.63240 | 2.92518 | 2911 ft | 200 kts | 238° |
| 2026-05-06 10:27 | 39.62516 | 2.90977 | 2641 ft | 200 kts | 238° |
| 2026-05-06 10:27 | 39.61793 | 2.89439 | 2356 ft | 200 kts | 238° |
| 2026-05-06 10:28 | 39.61090 | 2.87945 | 2104 ft | 186 kts | 238° |
| 2026-05-06 10:28 | 39.60448 | 2.86579 | 1865 ft | 168 kts | 238° |
| 2026-05-06 10:28 | 39.59873 | 2.85357 | 1656 ft | 151 kts | 238° |
| 2026-05-06 10:28 | 39.59338 | 2.84221 | 1444 ft | 145 kts | 238° |
| 2026-05-06 10:29 | 39.58818 | 2.83118 | 1257 ft | 142 kts | 238° |
| 2026-05-06 10:29 | 39.58305 | 2.82029 | 1075 ft | 141 kts | 238° |
| 2026-05-06 10:29 | 39.57796 | 2.80951 | 892 ft | 140 kts | 238° |
| 2026-05-06 10:29 | 39.57289 | 2.79876 | 684 ft | 139 kts | 238° |
| 2026-05-06 10:30 | 39.56787 | 2.78810 | 518 ft | 138 kts | 238° |
| 2026-05-06 10:30 | 39.56291 | 2.77754 | 347 ft | 136 kts | 238° |
| 2026-05-06 10:30 | 39.55799 | 2.76708 | 177 ft | 135 kts | 237° |
| 2026-05-06 10:30 | 39.55313 | 2.75680 | 26 ft | 127 kts | 238° |
| 2026-05-06 10:31 | 39.54937 | 2.74887 | 30 ft | 84 kts | 239° |
| 2026-05-06 10:31 | 39.54679 | 2.74339 | 38 ft | 48 kts | 239° |
| 2026-05-06 10:31 | 39.54570 | 2.74068 | 36 ft | 28 kts | 250° |
| 2026-05-06 10:31 | 39.54552 | 2.73899 | 35 ft | 13 kts | 268° |
| 2026-05-06 10:32 | 39.54551 | 2.73844 | 35 ft | 0 kts | 270° |
| 2026-05-06 10:32 | 39.54552 | 2.73792 | 36 ft | 9 kts | 272° |
| 2026-05-06 10:32 | 39.54559 | 2.73717 | 36 ft | 8 kts | 282° |
| 2026-05-06 10:33 | 39.54580 | 2.73660 | 36 ft | 7 kts | 309° |
| 2026-05-06 10:33 | 39.54616 | 2.73630 | 36 ft | 7 kts | 343° |
| 2026-05-06 10:33 | 39.54652 | 2.73657 | 36 ft | 6 kts | 57° |
| 2026-05-06 10:33 | 39.54685 | 2.73728 | 36 ft | 14 kts | 59° |
| 2026-05-06 10:34 | 39.54716 | 2.73796 | 35 ft | 8 kts | 60° |
| 2026-05-06 10:34 | 39.54743 | 2.73854 | 36 ft | 10 kts | 55° |
| 2026-05-06 10:34 | 39.54787 | 2.73942 | 36 ft | 11 kts | 58° |
| 2026-05-06 10:34 | 39.54844 | 2.73991 | 36 ft | 10 kts | 359° |
| 2026-05-06 10:35 | 39.54903 | 2.73957 | 36 ft | 9 kts | 331° |
| 2026-05-06 10:35 | 39.54955 | 2.73916 | 35 ft | 10 kts | 328° |
| 2026-05-06 10:35 | 39.55025 | 2.73862 | 36 ft | 12 kts | 329° |
| 2026-05-06 10:35 | 39.55091 | 2.73810 | 36 ft | 11 kts | 329° |
| 2026-05-06 10:36 | 39.55152 | 2.73762 | 36 ft | 10 kts | 328° |
| 2026-05-06 10:36 | 39.55175 | 2.73696 | 36 ft | 8 kts | 256° |
| 2026-05-06 10:36 | 39.55149 | 2.73636 | 34 ft | 7 kts | 237° |
| 2026-05-06 10:36 | 39.55121 | 2.73581 | 36 ft | 7 kts | 237° |
| 2026-05-06 10:37 | 39.55096 | 2.73536 | 35 ft | 5 kts | 217° |
| 2026-05-06 10:37 | 39.55066 | 2.73534 | 36 ft | 4 kts | 169° |
| 2026-05-06 10:37 | 39.55046 | 2.73540 | 36 ft | 2 kts | 165° |
| 2026-05-06 10:37 | 39.55040 | 2.73542 | 35 ft | 0 kts | 165° |